sensor_id;sensor_type;location;lat;lon;timestamp;P1;durP1;ratioP1;P2;durP2;ratioP2
59006;SDS011;44792;52.760;6.726;2023-01-01T00:00:45;47.50;;;25.77;;
59006;SDS011;44792;52.760;6.726;2023-01-01T00:03:11;48.15;;;25.67;;
59006;SDS011;44792;52.760;6.726;2023-01-01T00:05:37;41.22;;;23.48;;
59006;SDS011;44792;52.760;6.726;2023-01-01T00:08:03;40.30;;;24.42;;
59006;SDS011;44792;52.760;6.726;2023-01-01T00:10:29;29.45;;;15.57;;
59006;SDS011;44792;52.760;6.726;2023-01-01T00:12:55;37.90;;;17.75;;
59006;SDS011;44792;52.760;6.726;2023-01-01T00:15:21;47.38;;;24.23;;
59006;SDS011;44792;52.760;6.726;2023-01-01T00:17:47;41.13;;;20.40;;
59006;SDS011;44792;52.760;6.726;2023-01-01T00:20:13;45.05;;;26.05;;
59006;SDS011;44792;52.760;6.726;2023-01-01T00:22:38;41.30;;;23.58;;
59006;SDS011;44792;52.760;6.726;2023-01-01T00:25:04;42.85;;;24.20;;
59006;SDS011;44792;52.760;6.726;2023-01-01T00:27:30;38.65;;;21.30;;
59006;SDS011;44792;52.760;6.726;2023-01-01T00:29:56;25.20;;;17.75;;
59006;SDS011;44792;52.760;6.726;2023-01-01T00:32:21;32.80;;;17.30;;
59006;SDS011;44792;52.760;6.726;2023-01-01T00:34:47;30.92;;;17.90;;
59006;SDS011;44792;52.760;6.726;2023-01-01T00:37:12;37.08;;;17.92;;
59006;SDS011;44792;52.760;6.726;2023-01-01T00:39:39;38.53;;;18.83;;
59006;SDS011;44792;52.760;6.726;2023-01-01T00:42:05;33.38;;;18.35;;
59006;SDS011;44792;52.760;6.726;2023-01-01T00:44:31;46.50;;;22.05;;
59006;SDS011;44792;52.760;6.726;2023-01-01T00:46:56;33.72;;;17.75;;
59006;SDS011;44792;52.760;6.726;2023-01-01T00:49:22;32.65;;;16.77;;
59006;SDS011;44792;52.760;6.726;2023-01-01T00:51:47;36.88;;;18.00;;
59006;SDS011;44792;52.760;6.726;2023-01-01T00:54:13;34.67;;;16.13;;
59006;SDS011;44792;52.760;6.726;2023-01-01T00:56:38;30.38;;;17.63;;
59006;SDS011;44792;52.760;6.726;2023-01-01T00:59:04;29.27;;;15.32;;
59006;SDS011;44792;52.760;6.726;2023-01-01T01:01:30;24.33;;;14.43;;
59006;SDS011;44792;52.760;6.726;2023-01-01T01:03:57;25.42;;;13.57;;
59006;SDS011;44792;52.760;6.726;2023-01-01T01:06:23;24.20;;;14.55;;
59006;SDS011;44792;52.760;6.726;2023-01-01T01:08:48;25.00;;;13.13;;
59006;SDS011;44792;52.760;6.726;2023-01-01T01:11:15;25.13;;;12.65;;
59006;SDS011;44792;52.760;6.726;2023-01-01T01:13:43;25.83;;;12.35;;
59006;SDS011;44792;52.760;6.726;2023-01-01T01:16:18;31.25;;;13.00;;
59006;SDS011;44792;52.760;6.726;2023-01-01T01:18:55;23.92;;;12.13;;
59006;SDS011;44792;52.760;6.726;2023-01-01T01:21:23;30.63;;;12.45;;
59006;SDS011;44792;52.760;6.726;2023-01-01T01:23:50;22.83;;;11.35;;
59006;SDS011;44792;52.760;6.726;2023-01-01T01:26:17;19.05;;;10.68;;
59006;SDS011;44792;52.760;6.726;2023-01-01T01:28:44;19.70;;;11.25;;
59006;SDS011;44792;52.760;6.726;2023-01-01T01:31:10;20.25;;;10.93;;
59006;SDS011;44792;52.760;6.726;2023-01-01T01:33:36;22.77;;;11.50;;
59006;SDS011;44792;52.760;6.726;2023-01-01T01:36:03;21.48;;;10.95;;
59006;SDS011;44792;52.760;6.726;2023-01-01T01:38:29;24.00;;;11.85;;
59006;SDS011;44792;52.760;6.726;2023-01-01T01:40:55;16.48;;;10.50;;
59006;SDS011;44792;52.760;6.726;2023-01-01T01:43:23;25.08;;;10.90;;
59006;SDS011;44792;52.760;6.726;2023-01-01T01:45:53;21.75;;;11.68;;
59006;SDS011;44792;52.760;6.726;2023-01-01T01:48:21;26.45;;;14.40;;
59006;SDS011;44792;52.760;6.726;2023-01-01T01:50:47;27.20;;;13.13;;
59006;SDS011;44792;52.760;6.726;2023-01-01T01:53:19;26.02;;;12.60;;
59006;SDS011;44792;52.760;6.726;2023-01-01T01:55:56;21.58;;;12.38;;
59006;SDS011;44792;52.760;6.726;2023-01-01T01:58:28;32.40;;;13.30;;
59006;SDS011;44792;52.760;6.726;2023-01-01T02:00:56;26.13;;;12.82;;
59006;SDS011;44792;52.760;6.726;2023-01-01T02:05:50;21.40;;;12.57;;
59006;SDS011;44792;52.760;6.726;2023-01-01T02:08:17;21.45;;;12.10;;
59006;SDS011;44792;52.760;6.726;2023-01-01T02:10:44;31.15;;;13.25;;
59006;SDS011;44792;52.760;6.726;2023-01-01T02:13:10;30.02;;;14.07;;
59006;SDS011;44792;52.760;6.726;2023-01-01T02:15:38;21.02;;;12.65;;
59006;SDS011;44792;52.760;6.726;2023-01-01T02:18:12;23.33;;;12.85;;
59006;SDS011;44792;52.760;6.726;2023-01-01T02:28:58;19.85;;;10.82;;
59006;SDS011;44792;52.760;6.726;2023-01-01T02:31:28;25.17;;;11.55;;
59006;SDS011;44792;52.760;6.726;2023-01-01T02:33:59;26.27;;;10.15;;
59006;SDS011;44792;52.760;6.726;2023-01-01T02:36:29;23.67;;;9.23;;
59006;SDS011;44792;52.760;6.726;2023-01-01T02:38:57;20.88;;;9.20;;
59006;SDS011;44792;52.760;6.726;2023-01-01T02:41:26;14.20;;;8.73;;
59006;SDS011;44792;52.760;6.726;2023-01-01T02:43:55;17.10;;;8.45;;
59006;SDS011;44792;52.760;6.726;2023-01-01T02:46:21;12.65;;;7.07;;
59006;SDS011;44792;52.760;6.726;2023-01-01T02:48:47;21.30;;;8.55;;
59006;SDS011;44792;52.760;6.726;2023-01-01T02:54:11;14.57;;;6.82;;
59006;SDS011;44792;52.760;6.726;2023-01-01T02:56:43;16.20;;;6.03;;
59006;SDS011;44792;52.760;6.726;2023-01-01T02:59:20;14.85;;;5.50;;
59006;SDS011;44792;52.760;6.726;2023-01-01T03:07:58;11.43;;;4.97;;
59006;SDS011;44792;52.760;6.726;2023-01-01T03:10:44;10.35;;;4.05;;
59006;SDS011;44792;52.760;6.726;2023-01-01T03:15:50;11.57;;;3.60;;
59006;SDS011;44792;52.760;6.726;2023-01-01T03:21:41;9.65;;;3.75;;
59006;SDS011;44792;52.760;6.726;2023-01-01T03:24:20;7.65;;;2.83;;
59006;SDS011;44792;52.760;6.726;2023-01-01T03:26:56;7.38;;;3.22;;
59006;SDS011;44792;52.760;6.726;2023-01-01T03:29:25;7.10;;;2.70;;
59006;SDS011;44792;52.760;6.726;2023-01-01T03:31:56;5.78;;;2.40;;
59006;SDS011;44792;52.760;6.726;2023-01-01T03:34:28;12.32;;;3.30;;
59006;SDS011;44792;52.760;6.726;2023-01-01T03:36:58;7.40;;;2.65;;
59006;SDS011;44792;52.760;6.726;2023-01-01T03:39:29;5.60;;;2.97;;
59006;SDS011;44792;52.760;6.726;2023-01-01T03:44:33;6.22;;;2.72;;
59006;SDS011;44792;52.760;6.726;2023-01-01T03:47:02;9.75;;;2.67;;
59006;SDS011;44792;52.760;6.726;2023-01-01T03:49:30;6.90;;;2.03;;
59006;SDS011;44792;52.760;6.726;2023-01-01T03:55:07;7.95;;;3.20;;
59006;SDS011;44792;52.760;6.726;2023-01-01T03:57:44;11.77;;;2.83;;
59006;SDS011;44792;52.760;6.726;2023-01-01T04:00:33;6.78;;;2.10;;
59006;SDS011;44792;52.760;6.726;2023-01-01T04:03:08;5.10;;;2.20;;
59006;SDS011;44792;52.760;6.726;2023-01-01T04:05:42;10.25;;;2.60;;
59006;SDS011;44792;52.760;6.726;2023-01-01T04:08:08;14.73;;;4.82;;
59006;SDS011;44792;52.760;6.726;2023-01-01T04:10:37;6.47;;;2.05;;
59006;SDS011;44792;52.760;6.726;2023-01-01T04:13:06;11.07;;;3.28;;
59006;SDS011;44792;52.760;6.726;2023-01-01T04:15:32;6.55;;;1.98;;
59006;SDS011;44792;52.760;6.726;2023-01-01T04:17:59;4.70;;;2.22;;
59006;SDS011;44792;52.760;6.726;2023-01-01T04:20:25;6.10;;;2.05;;
59006;SDS011;44792;52.760;6.726;2023-01-01T04:22:51;6.15;;;2.17;;
59006;SDS011;44792;52.760;6.726;2023-01-01T04:25:21;3.10;;;1.83;;
59006;SDS011;44792;52.760;6.726;2023-01-01T04:27:46;10.10;;;2.45;;
59006;SDS011;44792;52.760;6.726;2023-01-01T04:30:12;3.67;;;1.85;;
59006;SDS011;44792;52.760;6.726;2023-01-01T04:32:39;11.27;;;1.83;;
59006;SDS011;44792;52.760;6.726;2023-01-01T04:35:06;5.00;;;2.50;;
59006;SDS011;44792;52.760;6.726;2023-01-01T04:37:35;8.45;;;2.58;;
59006;SDS011;44792;52.760;6.726;2023-01-01T04:40:02;11.02;;;2.20;;
59006;SDS011;44792;52.760;6.726;2023-01-01T04:42:28;5.85;;;2.00;;
59006;SDS011;44792;52.760;6.726;2023-01-01T04:44:53;5.07;;;1.90;;
59006;SDS011;44792;52.760;6.726;2023-01-01T04:47:19;8.93;;;2.22;;
59006;SDS011;44792;52.760;6.726;2023-01-01T04:49:44;4.05;;;2.45;;
59006;SDS011;44792;52.760;6.726;2023-01-01T04:52:10;10.98;;;2.22;;
59006;SDS011;44792;52.760;6.726;2023-01-01T04:54:35;4.80;;;1.70;;
59006;SDS011;44792;52.760;6.726;2023-01-01T04:57:01;2.88;;;1.77;;
59006;SDS011;44792;52.760;6.726;2023-01-01T04:59:28;4.80;;;1.90;;
59006;SDS011;44792;52.760;6.726;2023-01-01T05:01:54;5.82;;;1.80;;
59006;SDS011;44792;52.760;6.726;2023-01-01T05:04:20;5.32;;;1.67;;
59006;SDS011;44792;52.760;6.726;2023-01-01T05:06:45;4.30;;;1.40;;
59006;SDS011;44792;52.760;6.726;2023-01-01T05:09:11;6.13;;;1.98;;
59006;SDS011;44792;52.760;6.726;2023-01-01T05:11:37;4.15;;;1.65;;
59006;SDS011;44792;52.760;6.726;2023-01-01T05:14:02;5.97;;;1.65;;
59006;SDS011;44792;52.760;6.726;2023-01-01T05:16:29;5.03;;;2.22;;
59006;SDS011;44792;52.760;6.726;2023-01-01T05:18:56;4.72;;;1.50;;
59006;SDS011;44792;52.760;6.726;2023-01-01T05:21:23;5.13;;;2.20;;
59006;SDS011;44792;52.760;6.726;2023-01-01T05:24:00;3.10;;;1.42;;
59006;SDS011;44792;52.760;6.726;2023-01-01T05:26:32;5.57;;;1.37;;
59006;SDS011;44792;52.760;6.726;2023-01-01T05:28:59;5.70;;;1.50;;
59006;SDS011;44792;52.760;6.726;2023-01-01T05:31:27;5.88;;;1.58;;
59006;SDS011;44792;52.760;6.726;2023-01-01T05:33:54;4.85;;;1.40;;
59006;SDS011;44792;52.760;6.726;2023-01-01T05:36:25;5.55;;;1.38;;
59006;SDS011;44792;52.760;6.726;2023-01-01T05:38:52;5.65;;;1.60;;
59006;SDS011;44792;52.760;6.726;2023-01-01T05:41:20;3.17;;;1.27;;
59006;SDS011;44792;52.760;6.726;2023-01-01T05:43:46;2.05;;;1.00;;
59006;SDS011;44792;52.760;6.726;2023-01-01T05:46:14;5.22;;;1.38;;
59006;SDS011;44792;52.760;6.726;2023-01-01T05:48:44;2.28;;;1.15;;
59006;SDS011;44792;52.760;6.726;2023-01-01T05:51:12;4.90;;;1.13;;
59006;SDS011;44792;52.760;6.726;2023-01-01T05:53:39;8.95;;;1.40;;
59006;SDS011;44792;52.760;6.726;2023-01-01T05:56:06;3.40;;;1.00;;
59006;SDS011;44792;52.760;6.726;2023-01-01T05:58:32;4.13;;;1.10;;
59006;SDS011;44792;52.760;6.726;2023-01-01T06:01:09;3.47;;;1.20;;
59006;SDS011;44792;52.760;6.726;2023-01-01T06:03:39;1.63;;;1.10;;
59006;SDS011;44792;52.760;6.726;2023-01-01T06:06:06;5.20;;;1.50;;
59006;SDS011;44792;52.760;6.726;2023-01-01T06:08:40;2.67;;;1.05;;
59006;SDS011;44792;52.760;6.726;2023-01-01T06:11:08;6.00;;;1.20;;
59006;SDS011;44792;52.760;6.726;2023-01-01T06:13:35;3.45;;;1.05;;
59006;SDS011;44792;52.760;6.726;2023-01-01T06:16:01;6.22;;;1.50;;
59006;SDS011;44792;52.760;6.726;2023-01-01T06:18:29;5.15;;;1.25;;
59006;SDS011;44792;52.760;6.726;2023-01-01T06:21:02;6.78;;;1.40;;
59006;SDS011;44792;52.760;6.726;2023-01-01T06:26:08;5.03;;;1.27;;
59006;SDS011;44792;52.760;6.726;2023-01-01T06:28:36;5.10;;;1.40;;
59006;SDS011;44792;52.760;6.726;2023-01-01T06:31:03;3.30;;;1.20;;
59006;SDS011;44792;52.760;6.726;2023-01-01T06:33:30;4.60;;;2.03;;
59006;SDS011;44792;52.760;6.726;2023-01-01T06:35:56;4.65;;;1.52;;
59006;SDS011;44792;52.760;6.726;2023-01-01T06:38:22;4.95;;;1.27;;
59006;SDS011;44792;52.760;6.726;2023-01-01T06:40:55;3.47;;;1.23;;
59006;SDS011;44792;52.760;6.726;2023-01-01T06:43:24;5.40;;;1.08;;
59006;SDS011;44792;52.760;6.726;2023-01-01T06:48:43;4.57;;;1.38;;
59006;SDS011;44792;52.760;6.726;2023-01-01T06:51:13;4.25;;;1.67;;
59006;SDS011;44792;52.760;6.726;2023-01-01T06:53:40;4.97;;;1.38;;
59006;SDS011;44792;52.760;6.726;2023-01-01T06:56:06;5.07;;;1.15;;
59006;SDS011;44792;52.760;6.726;2023-01-01T06:58:32;4.75;;;1.40;;
59006;SDS011;44792;52.760;6.726;2023-01-01T07:01:05;4.68;;;1.42;;
59006;SDS011;44792;52.760;6.726;2023-01-01T07:03:32;6.40;;;1.48;;
59006;SDS011;44792;52.760;6.726;2023-01-01T07:05:58;4.03;;;1.45;;
59006;SDS011;44792;52.760;6.726;2023-01-01T07:08:23;3.83;;;1.50;;
59006;SDS011;44792;52.760;6.726;2023-01-01T07:10:49;2.28;;;1.42;;
59006;SDS011;44792;52.760;6.726;2023-01-01T07:13:14;7.38;;;1.50;;
59006;SDS011;44792;52.760;6.726;2023-01-01T07:15:40;3.58;;;1.00;;
59006;SDS011;44792;52.760;6.726;2023-01-01T07:18:07;4.53;;;1.38;;
59006;SDS011;44792;52.760;6.726;2023-01-01T07:20:33;1.98;;;1.10;;
59006;SDS011;44792;52.760;6.726;2023-01-01T07:22:58;3.70;;;1.50;;
59006;SDS011;44792;52.760;6.726;2023-01-01T07:25:26;4.10;;;1.10;;
59006;SDS011;44792;52.760;6.726;2023-01-01T07:27:52;3.95;;;1.20;;
59006;SDS011;44792;52.760;6.726;2023-01-01T07:30:17;4.22;;;1.10;;
59006;SDS011;44792;52.760;6.726;2023-01-01T07:32:43;4.10;;;1.20;;
59006;SDS011;44792;52.760;6.726;2023-01-01T07:35:08;7.70;;;1.55;;
59006;SDS011;44792;52.760;6.726;2023-01-01T07:37:34;6.13;;;1.33;;
59006;SDS011;44792;52.760;6.726;2023-01-01T07:40:00;6.55;;;1.45;;
59006;SDS011;44792;52.760;6.726;2023-01-01T07:42:25;4.45;;;1.13;;
59006;SDS011;44792;52.760;6.726;2023-01-01T07:44:51;4.13;;;1.00;;
59006;SDS011;44792;52.760;6.726;2023-01-01T07:47:19;2.50;;;1.10;;
59006;SDS011;44792;52.760;6.726;2023-01-01T07:49:47;7.35;;;1.60;;
59006;SDS011;44792;52.760;6.726;2023-01-01T07:52:13;5.28;;;1.58;;
59006;SDS011;44792;52.760;6.726;2023-01-01T07:54:39;5.60;;;1.35;;
59006;SDS011;44792;52.760;6.726;2023-01-01T07:57:04;7.13;;;2.17;;
59006;SDS011;44792;52.760;6.726;2023-01-01T07:59:30;3.00;;;1.42;;
59006;SDS011;44792;52.760;6.726;2023-01-01T08:01:55;5.43;;;1.50;;
59006;SDS011;44792;52.760;6.726;2023-01-01T08:04:21;4.07;;;1.05;;
59006;SDS011;44792;52.760;6.726;2023-01-01T08:06:47;8.27;;;1.35;;
59006;SDS011;44792;52.760;6.726;2023-01-01T08:09:12;7.30;;;1.38;;
59006;SDS011;44792;52.760;6.726;2023-01-01T08:11:38;7.53;;;1.63;;
59006;SDS011;44792;52.760;6.726;2023-01-01T08:14:03;6.90;;;1.40;;
59006;SDS011;44792;52.760;6.726;2023-01-01T08:16:29;5.03;;;1.40;;
59006;SDS011;44792;52.760;6.726;2023-01-01T08:18:54;6.40;;;1.50;;
59006;SDS011;44792;52.760;6.726;2023-01-01T08:21:20;4.05;;;1.10;;
59006;SDS011;44792;52.760;6.726;2023-01-01T08:23:45;4.65;;;1.20;;
59006;SDS011;44792;52.760;6.726;2023-01-01T08:26:13;8.90;;;2.00;;
59006;SDS011;44792;52.760;6.726;2023-01-01T08:28:40;6.38;;;1.10;;
59006;SDS011;44792;52.760;6.726;2023-01-01T08:31:06;3.10;;;1.17;;
59006;SDS011;44792;52.760;6.726;2023-01-01T08:33:31;8.82;;;1.52;;
59006;SDS011;44792;52.760;6.726;2023-01-01T08:35:57;8.68;;;1.48;;
59006;SDS011;44792;52.760;6.726;2023-01-01T08:38:23;3.17;;;1.20;;
59006;SDS011;44792;52.760;6.726;2023-01-01T08:40:49;8.18;;;1.35;;
59006;SDS011;44792;52.760;6.726;2023-01-01T08:43:14;9.75;;;1.73;;
59006;SDS011;44792;52.760;6.726;2023-01-01T08:45:40;6.55;;;1.83;;
59006;SDS011;44792;52.760;6.726;2023-01-01T08:48:06;4.95;;;1.77;;
59006;SDS011;44792;52.760;6.726;2023-01-01T08:50:32;7.78;;;1.63;;
59006;SDS011;44792;52.760;6.726;2023-01-01T08:52:57;8.60;;;1.42;;
59006;SDS011;44792;52.760;6.726;2023-01-01T08:55:23;4.05;;;1.60;;
59006;SDS011;44792;52.760;6.726;2023-01-01T08:57:48;7.40;;;1.88;;
59006;SDS011;44792;52.760;6.726;2023-01-01T09:00:14;6.28;;;1.50;;
59006;SDS011;44792;52.760;6.726;2023-01-01T09:02:41;6.68;;;1.58;;
59006;SDS011;44792;52.760;6.726;2023-01-01T09:05:07;8.85;;;1.50;;
59006;SDS011;44792;52.760;6.726;2023-01-01T09:07:34;8.88;;;1.40;;
59006;SDS011;44792;52.760;6.726;2023-01-01T09:09:59;9.00;;;2.05;;
59006;SDS011;44792;52.760;6.726;2023-01-01T09:12:25;5.97;;;1.75;;
59006;SDS011;44792;52.760;6.726;2023-01-01T09:14:50;9.15;;;2.10;;
59006;SDS011;44792;52.760;6.726;2023-01-01T09:17:16;6.22;;;1.83;;
59006;SDS011;44792;52.760;6.726;2023-01-01T09:19:42;5.47;;;2.28;;
59006;SDS011;44792;52.760;6.726;2023-01-01T09:22:08;6.95;;;1.70;;
59006;SDS011;44792;52.760;6.726;2023-01-01T09:24:34;4.68;;;1.45;;
59006;SDS011;44792;52.760;6.726;2023-01-01T09:27:00;5.32;;;1.75;;
59006;SDS011;44792;52.760;6.726;2023-01-01T09:29:26;6.78;;;1.65;;
59006;SDS011;44792;52.760;6.726;2023-01-01T09:31:51;8.50;;;1.60;;
59006;SDS011;44792;52.760;6.726;2023-01-01T09:34:17;7.47;;;1.98;;
59006;SDS011;44792;52.760;6.726;2023-01-01T09:36:43;5.85;;;1.48;;
59006;SDS011;44792;52.760;6.726;2023-01-01T09:39:10;12.57;;;1.83;;
59006;SDS011;44792;52.760;6.726;2023-01-01T09:41:42;4.97;;;1.27;;
59006;SDS011;44792;52.760;6.726;2023-01-01T09:44:20;8.27;;;1.60;;
59006;SDS011;44792;52.760;6.726;2023-01-01T09:47:36;6.60;;;1.38;;
59006;SDS011;44792;52.760;6.726;2023-01-01T09:50:15;2.53;;;1.23;;
59006;SDS011;44792;52.760;6.726;2023-01-01T09:52:57;3.97;;;1.17;;
59006;SDS011;44792;52.760;6.726;2023-01-01T09:55:26;9.40;;;1.40;;
59006;SDS011;44792;52.760;6.726;2023-01-01T09:58:15;10.88;;;1.70;;
59006;SDS011;44792;52.760;6.726;2023-01-01T10:00:51;10.93;;;3.53;;
59006;SDS011;44792;52.760;6.726;2023-01-01T10:07:17;8.02;;;1.95;;
59006;SDS011;44792;52.760;6.726;2023-01-01T10:11:54;5.57;;;1.60;;
59006;SDS011;44792;52.760;6.726;2023-01-01T10:14:36;6.95;;;1.80;;
59006;SDS011;44792;52.760;6.726;2023-01-01T10:17:14;8.10;;;1.60;;
59006;SDS011;44792;52.760;6.726;2023-01-01T10:19:52;12.23;;;2.03;;
59006;SDS011;44792;52.760;6.726;2023-01-01T10:22:24;10.38;;;2.83;;
59006;SDS011;44792;52.760;6.726;2023-01-01T10:24:54;5.90;;;1.60;;
59006;SDS011;44792;52.760;6.726;2023-01-01T10:27:36;10.13;;;2.05;;
59006;SDS011;44792;52.760;6.726;2023-01-01T10:30:12;3.83;;;1.40;;
59006;SDS011;44792;52.760;6.726;2023-01-01T10:32:45;7.10;;;1.55;;
59006;SDS011;44792;52.760;6.726;2023-01-01T10:35:14;11.02;;;1.63;;
59006;SDS011;44792;52.760;6.726;2023-01-01T10:37:41;4.93;;;1.52;;
59006;SDS011;44792;52.760;6.726;2023-01-01T10:40:14;4.97;;;1.30;;
59006;SDS011;44792;52.760;6.726;2023-01-01T10:42:48;10.20;;;2.03;;
59006;SDS011;44792;52.760;6.726;2023-01-01T10:45:17;8.23;;;2.08;;
59006;SDS011;44792;52.760;6.726;2023-01-01T10:50:49;2.72;;;1.20;;
59006;SDS011;44792;52.760;6.726;2023-01-01T10:55:50;11.02;;;2.20;;
59006;SDS011;44792;52.760;6.726;2023-01-01T11:01:02;9.10;;;1.48;;
59006;SDS011;44792;52.760;6.726;2023-01-01T11:03:30;11.40;;;1.75;;
59006;SDS011;44792;52.760;6.726;2023-01-01T11:08:48;8.38;;;2.17;;
59006;SDS011;44792;52.760;6.726;2023-01-01T11:11:25;5.57;;;1.50;;
59006;SDS011;44792;52.760;6.726;2023-01-01T11:13:57;6.57;;;1.83;;
59006;SDS011;44792;52.760;6.726;2023-01-01T11:16:25;9.32;;;1.63;;
59006;SDS011;44792;52.760;6.726;2023-01-01T11:18:57;10.63;;;1.52;;
59006;SDS011;44792;52.760;6.726;2023-01-01T11:21:26;8.00;;;1.35;;
59006;SDS011;44792;52.760;6.726;2023-01-01T11:24:05;6.93;;;1.40;;
59006;SDS011;44792;52.760;6.726;2023-01-01T11:26:44;11.85;;;1.65;;
59006;SDS011;44792;52.760;6.726;2023-01-01T11:29:17;3.72;;;1.45;;
59006;SDS011;44792;52.760;6.726;2023-01-01T11:31:53;10.80;;;1.67;;
59006;SDS011;44792;52.760;6.726;2023-01-01T11:36:51;9.18;;;2.05;;
59006;SDS011;44792;52.760;6.726;2023-01-01T11:39:29;7.57;;;1.98;;
59006;SDS011;44792;52.760;6.726;2023-01-01T11:42:00;4.05;;;1.85;;
59006;SDS011;44792;52.760;6.726;2023-01-01T11:47:01;7.60;;;1.85;;
59006;SDS011;44792;52.760;6.726;2023-01-01T11:49:30;9.40;;;1.98;;
59006;SDS011;44792;52.760;6.726;2023-01-01T11:51:57;9.38;;;1.95;;
59006;SDS011;44792;52.760;6.726;2023-01-01T11:56:59;10.73;;;2.75;;
59006;SDS011;44792;52.760;6.726;2023-01-01T11:59:52;9.60;;;1.73;;
59006;SDS011;44792;52.760;6.726;2023-01-01T12:02:31;12.63;;;1.75;;
59006;SDS011;44792;52.760;6.726;2023-01-01T12:07:33;9.23;;;1.67;;
59006;SDS011;44792;52.760;6.726;2023-01-01T12:10:03;7.57;;;1.75;;
59006;SDS011;44792;52.760;6.726;2023-01-01T12:12:38;10.55;;;2.10;;
59006;SDS011;44792;52.760;6.726;2023-01-01T12:15:25;8.25;;;1.90;;
59006;SDS011;44792;52.760;6.726;2023-01-01T12:18:12;10.00;;;1.88;;
59006;SDS011;44792;52.760;6.726;2023-01-01T12:20:51;5.03;;;1.80;;
59006;SDS011;44792;52.760;6.726;2023-01-01T12:23:23;6.70;;;1.27;;
59006;SDS011;44792;52.760;6.726;2023-01-01T12:25:51;9.60;;;1.88;;
59006;SDS011;44792;52.760;6.726;2023-01-01T12:31:26;11.02;;;2.20;;
59006;SDS011;44792;52.760;6.726;2023-01-01T12:34:03;6.72;;;2.00;;
59006;SDS011;44792;52.760;6.726;2023-01-01T12:42:38;13.27;;;2.58;;
59006;SDS011;44792;52.760;6.726;2023-01-01T12:50:28;9.18;;;2.10;;
59006;SDS011;44792;52.760;6.726;2023-01-01T12:56:21;6.57;;;2.20;;
59006;SDS011;44792;52.760;6.726;2023-01-01T12:59:12;11.23;;;2.20;;
59006;SDS011;44792;52.760;6.726;2023-01-01T13:01:43;10.07;;;2.50;;
59006;SDS011;44792;52.760;6.726;2023-01-01T13:04:11;10.10;;;3.10;;
59006;SDS011;44792;52.760;6.726;2023-01-01T13:06:48;11.68;;;2.30;;
59006;SDS011;44792;52.760;6.726;2023-01-01T13:09:25;12.93;;;2.53;;
59006;SDS011;44792;52.760;6.726;2023-01-01T13:12:00;10.10;;;2.35;;
59006;SDS011;44792;52.760;6.726;2023-01-01T13:14:29;4.90;;;1.80;;
59006;SDS011;44792;52.760;6.726;2023-01-01T13:19:45;14.70;;;2.50;;
59006;SDS011;44792;52.760;6.726;2023-01-01T13:22:35;10.02;;;2.40;;
59006;SDS011;44792;52.760;6.726;2023-01-01T13:38:54;8.63;;;2.80;;
59006;SDS011;44792;52.760;6.726;2023-01-01T13:41:42;7.93;;;2.00;;
59006;SDS011;44792;52.760;6.726;2023-01-01T13:44:10;11.65;;;2.75;;
59006;SDS011;44792;52.760;6.726;2023-01-01T13:46:42;7.75;;;2.42;;
59006;SDS011;44792;52.760;6.726;2023-01-01T13:49:54;11.88;;;2.22;;
59006;SDS011;44792;52.760;6.726;2023-01-01T13:55:23;9.75;;;2.40;;
59006;SDS011;44792;52.760;6.726;2023-01-01T14:03:30;9.40;;;2.13;;
59006;SDS011;44792;52.760;6.726;2023-01-01T14:06:03;6.97;;;2.10;;
59006;SDS011;44792;52.760;6.726;2023-01-01T14:08:40;6.60;;;2.17;;
59006;SDS011;44792;52.760;6.726;2023-01-01T14:11:19;9.63;;;2.03;;
59006;SDS011;44792;52.760;6.726;2023-01-01T14:13:47;5.20;;;2.13;;
59006;SDS011;44792;52.760;6.726;2023-01-01T14:16:13;9.57;;;2.25;;
59006;SDS011;44792;52.760;6.726;2023-01-01T14:18:49;4.45;;;1.92;;
59006;SDS011;44792;52.760;6.726;2023-01-01T14:21:24;5.50;;;2.55;;
59006;SDS011;44792;52.760;6.726;2023-01-01T14:23:53;9.10;;;2.30;;
59006;SDS011;44792;52.760;6.726;2023-01-01T14:26:22;9.45;;;2.63;;
59006;SDS011;44792;52.760;6.726;2023-01-01T14:28:53;9.25;;;3.10;;
59006;SDS011;44792;52.760;6.726;2023-01-01T14:31:22;7.60;;;1.95;;
59006;SDS011;44792;52.760;6.726;2023-01-01T14:33:55;15.73;;;3.05;;
59006;SDS011;44792;52.760;6.726;2023-01-01T14:36:22;9.85;;;2.47;;
59006;SDS011;44792;52.760;6.726;2023-01-01T14:38:50;8.30;;;2.25;;
59006;SDS011;44792;52.760;6.726;2023-01-01T14:41:26;12.93;;;2.63;;
59006;SDS011;44792;52.760;6.726;2023-01-01T14:44:19;6.93;;;2.15;;
59006;SDS011;44792;52.760;6.726;2023-01-01T14:46:48;11.57;;;2.10;;
59006;SDS011;44792;52.760;6.726;2023-01-01T14:49:23;11.98;;;3.90;;
59006;SDS011;44792;52.760;6.726;2023-01-01T14:52:02;9.90;;;3.72;;
59006;SDS011;44792;52.760;6.726;2023-01-01T14:54:34;11.02;;;3.35;;
59006;SDS011;44792;52.760;6.726;2023-01-01T14:57:02;8.23;;;3.85;;
59006;SDS011;44792;52.760;6.726;2023-01-01T14:59:35;9.05;;;3.58;;
59006;SDS011;44792;52.760;6.726;2023-01-01T15:02:14;5.20;;;3.22;;
59006;SDS011;44792;52.760;6.726;2023-01-01T15:04:41;8.00;;;2.95;;
59006;SDS011;44792;52.760;6.726;2023-01-01T15:07:27;11.05;;;2.75;;
59006;SDS011;44792;52.760;6.726;2023-01-01T15:09:55;9.65;;;2.92;;
59006;SDS011;44792;52.760;6.726;2023-01-01T15:12:24;5.70;;;2.70;;
59006;SDS011;44792;52.760;6.726;2023-01-01T15:14:51;15.50;;;2.85;;
59006;SDS011;44792;52.760;6.726;2023-01-01T15:17:22;12.40;;;2.53;;
59006;SDS011;44792;52.760;6.726;2023-01-01T15:20:35;7.43;;;2.45;;
59006;SDS011;44792;52.760;6.726;2023-01-01T15:22:46;15.18;;;3.53;;
59006;SDS011;44792;52.760;6.726;2023-01-01T15:25:12;14.25;;;3.58;;
59006;SDS011;44792;52.760;6.726;2023-01-01T15:27:40;11.88;;;3.13;;
59006;SDS011;44792;52.760;6.726;2023-01-01T15:30:20;8.93;;;2.53;;
59006;SDS011;44792;52.760;6.726;2023-01-01T15:32:50;11.73;;;2.92;;
59006;SDS011;44792;52.760;6.726;2023-01-01T15:35:21;8.35;;;2.53;;
59006;SDS011;44792;52.760;6.726;2023-01-01T15:37:55;9.40;;;3.17;;
59006;SDS011;44792;52.760;6.726;2023-01-01T15:47:55;12.68;;;2.92;;
59006;SDS011;44792;52.760;6.726;2023-01-01T15:50:40;14.40;;;2.97;;
59006;SDS011;44792;52.760;6.726;2023-01-01T16:01:01;16.63;;;3.85;;
59006;SDS011;44792;52.760;6.726;2023-01-01T16:03:29;19.30;;;5.90;;
59006;SDS011;44792;52.760;6.726;2023-01-01T16:05:56;13.48;;;5.40;;
59006;SDS011;44792;52.760;6.726;2023-01-01T16:08:22;13.23;;;4.28;;
59006;SDS011;44792;52.760;6.726;2023-01-01T16:10:49;12.18;;;3.30;;
59006;SDS011;44792;52.760;6.726;2023-01-01T16:13:15;14.63;;;3.72;;
59006;SDS011;44792;52.760;6.726;2023-01-01T16:18:22;15.82;;;6.53;;
59006;SDS011;44792;52.760;6.726;2023-01-01T16:20:53;15.27;;;5.32;;
59006;SDS011;44792;52.760;6.726;2023-01-01T16:23:19;20.98;;;5.43;;
59006;SDS011;44792;52.760;6.726;2023-01-01T16:25:44;23.02;;;6.13;;
59006;SDS011;44792;52.760;6.726;2023-01-01T16:28:10;14.52;;;5.60;;
59006;SDS011;44792;52.760;6.726;2023-01-01T16:30:35;15.80;;;5.53;;
59006;SDS011;44792;52.760;6.726;2023-01-01T16:33:01;19.63;;;6.30;;
59006;SDS011;44792;52.760;6.726;2023-01-01T16:35:28;30.73;;;10.57;;
59006;SDS011;44792;52.760;6.726;2023-01-01T16:37:53;48.33;;;22.88;;
59006;SDS011;44792;52.760;6.726;2023-01-01T16:40:19;30.30;;;14.45;;
59006;SDS011;44792;52.760;6.726;2023-01-01T16:42:44;22.80;;;10.02;;
59006;SDS011;44792;52.760;6.726;2023-01-01T16:45:13;20.15;;;7.50;;
59006;SDS011;44792;52.760;6.726;2023-01-01T16:47:41;15.88;;;5.70;;
59006;SDS011;44792;52.760;6.726;2023-01-01T16:50:07;13.38;;;5.05;;
59006;SDS011;44792;52.760;6.726;2023-01-01T16:52:33;7.93;;;4.00;;
59006;SDS011;44792;52.760;6.726;2023-01-01T16:54:59;11.90;;;4.80;;
59006;SDS011;44792;52.760;6.726;2023-01-01T16:57:24;11.32;;;5.18;;
59006;SDS011;44792;52.760;6.726;2023-01-01T16:59:50;22.08;;;5.25;;